createdAt,value
2022-09-05T00:01:36.489Z,100.00
2022-09-05T00:04:24.425Z,100.00
2022-09-05T00:07:03.113Z,100.00
2022-09-05T00:09:56.414Z,100.00
2022-09-05T00:12:26.973Z,100.00
2022-09-05T00:15:17.147Z,100.00
2022-09-05T00:24:11.023Z,100.00
2022-09-05T00:24:26.336Z,100.00
2022-09-05T00:24:50.374Z,100.00
2022-09-05T00:27:29.409Z,100.00
2022-09-05T00:31:51.011Z,100.00
2022-09-05T00:33:27.100Z,100.00
2022-09-05T00:36:14.278Z,100.00
2022-09-05T00:38:52.599Z,100.00
2022-09-05T00:41:21.227Z,100.00
2022-09-05T00:43:51.843Z,100.00
2022-09-05T00:46:26.192Z,100.00
2022-09-05T00:49:12.881Z,100.00
2022-09-05T00:51:49.546Z,100.00
2022-09-05T00:54:46.658Z,100.00
2022-09-05T00:57:53.848Z,100.00
2022-09-05T01:00:23.939Z,100.00
2022-09-05T01:03:22.280Z,100.00
2022-09-05T01:06:05.214Z,100.00
2022-09-05T01:09:09.372Z,100.00
2022-09-05T01:11:51.834Z,100.00
2022-09-05T01:14:40.535Z,100.00
2022-09-05T01:17:31.105Z,100.00
2022-09-05T01:20:20.582Z,100.00
2022-09-05T01:23:11.261Z,100.00
2022-09-05T01:25:55.259Z,100.00
2022-09-05T01:29:16.445Z,100.00
2022-09-05T01:31:32.454Z,100.00
2022-09-05T01:34:10.351Z,100.00
2022-09-05T01:36:51.890Z,100.00
2022-09-05T01:40:10.526Z,100.00
2022-09-05T01:42:29.244Z,100.00
2022-09-05T01:45:07.199Z,100.00
2022-09-05T01:47:50.758Z,100.00
2022-09-05T01:50:40.467Z,100.00
2022-09-05T01:53:33.377Z,100.00
2022-09-05T01:56:31.030Z,100.00
2022-09-05T01:59:15.609Z,100.00
2022-09-05T02:02:01.374Z,100.00
2022-09-05T02:04:56.479Z,100.00
2022-09-05T02:07:35.887Z,100.00
2022-09-05T02:10:28.345Z,100.00
2022-09-05T02:13:03.536Z,100.00
2022-09-05T02:15:45.126Z,100.00
2022-09-05T02:18:46.477Z,100.00
2022-09-05T02:21:25.341Z,100.00
2022-09-05T02:24:06.645Z,100.00
2022-09-05T02:26:40.465Z,100.00
2022-09-05T02:29:28.914Z,100.00
2022-09-05T02:32:03.417Z,100.00
2022-09-05T02:34:42.679Z,100.00
2022-09-05T02:37:21.595Z,100.00
2022-09-05T02:45:09.613Z,100.00
2022-09-05T02:45:15.181Z,100.00
2022-09-05T02:46:06.659Z,90.86
2022-09-05T02:48:51.812Z,90.10
2022-09-05T02:57:36.182Z,87.18
2022-09-05T02:57:46.440Z,87.34
2022-09-05T02:58:07.033Z,87.66
2022-09-05T03:00:20.746Z,84.31
2022-09-05T03:03:21.138Z,87.54
2022-09-05T03:05:58.740Z,88.41
2022-09-05T03:08:51.692Z,88.67
2022-09-05T03:12:00.164Z,84.40
2022-09-05T03:15:31.409Z,83.04
2022-09-05T03:18:35.761Z,85.71
2022-09-05T03:21:52.760Z,86.33
2022-09-05T03:24:42.706Z,84.61
2022-09-05T03:28:17.345Z,84.16
2022-09-05T03:31:08.084Z,84.30
2022-09-05T03:34:26.288Z,85.53
2022-09-05T03:37:27.206Z,87.13
2022-09-05T03:40:41.002Z,87.95
2022-09-05T03:43:37.333Z,91.46
2022-09-05T03:53:29.398Z,95.45
2022-09-05T03:57:11.479Z,95.83
2022-09-05T03:57:26.846Z,96.29
2022-09-05T03:58:58.732Z,96.75
2022-09-05T04:04:42.154Z,97.67
2022-09-05T04:08:09.910Z,98.27
2022-09-05T04:08:23.589Z,99.42
2022-09-05T04:10:27.587Z,99.85
2022-09-05T04:13:02.656Z,100.00
2022-09-05T04:15:40.667Z,100.00
2022-09-05T04:18:33.457Z,100.00
2022-09-05T04:21:10.136Z,100.00
2022-09-05T04:23:49.162Z,100.00
2022-09-05T04:26:39.428Z,100.00
2022-09-05T04:29:20.798Z,100.00
2022-09-05T04:32:03.920Z,100.00
2022-09-05T04:35:08.345Z,100.00
2022-09-05T04:37:48.474Z,100.00
2022-09-05T04:40:38.984Z,100.00
2022-09-05T04:43:12.161Z,100.00
2022-09-05T04:45:46.912Z,100.00
2022-09-05T04:48:21.615Z,100.00
2022-09-05T04:51:06.180Z,100.00
2022-09-05T04:53:47.078Z,100.00
2022-09-05T04:56:20.762Z,100.00
2022-09-05T05:01:37.914Z,100.00
2022-09-05T05:06:05.268Z,100.00
2022-09-05T05:06:19.105Z,100.00
2022-09-05T05:07:47.035Z,100.00
2022-09-05T05:12:52.261Z,100.00
2022-09-05T05:18:01.973Z,100.00
2022-09-05T05:18:12.190Z,100.00
2022-09-05T05:19:17.280Z,100.00
2022-09-05T05:21:52.380Z,100.00
2022-09-05T05:24:25.227Z,100.00
2022-09-05T05:27:04.160Z,100.00
2022-09-05T05:29:44.026Z,100.00
2022-09-05T05:32:31.698Z,100.00
2022-09-05T05:35:13.717Z,100.00
2022-09-05T05:37:46.732Z,100.00
2022-09-05T05:40:22.571Z,100.00
2022-09-05T05:42:51.114Z,100.00
2022-09-05T05:45:25.198Z,100.00
2022-09-05T05:47:57.160Z,100.00
2022-09-05T05:50:39.326Z,100.00
2022-09-05T05:53:42.737Z,100.00
2022-09-05T05:56:50.147Z,100.00
2022-09-05T05:59:56.731Z,100.00
2022-09-05T06:03:25.307Z,100.00
2022-09-05T06:06:22.966Z,100.00
2022-09-05T06:14:47.933Z,100.00
2022-09-05T06:15:02.948Z,100.00
2022-09-05T06:16:07.604Z,100.00
2022-09-05T06:19:04.682Z,98.22
2022-09-05T06:22:10.742Z,89.12
2022-09-05T06:25:42.640Z,81.06
2022-09-05T06:28:21.679Z,75.26
2022-09-05T06:31:29.883Z,71.71
2022-09-05T06:34:29.563Z,68.90
2022-09-05T06:37:11.658Z,66.56
2022-09-05T06:40:02.128Z,63.62
2022-09-05T06:42:45.126Z,62.84
2022-09-05T06:45:32.169Z,61.79
2022-09-05T06:48:11.366Z,58.89
2022-09-05T06:51:32.691Z,56.66
2022-09-05T06:54:20.822Z,54.79
2022-09-05T06:57:11.090Z,52.12
2022-09-05T07:00:10.302Z,51.92
2022-09-05T07:03:10.017Z,51.13
2022-09-05T07:05:47.289Z,49.76
2022-09-05T07:08:35.272Z,48.72
2022-09-05T07:11:16.931Z,47.11
2022-09-05T07:13:58.705Z,42.02
2022-09-05T07:16:41.728Z,38.92
2022-09-05T07:19:29.739Z,37.45
2022-09-05T07:22:47.120Z,36.13
2022-09-05T07:25:20.257Z,35.41
2022-09-05T07:28:28.396Z,32.43
2022-09-05T07:30:52.519Z,30.69
2022-09-05T07:33:25.579Z,28.72
2022-09-05T07:35:58.294Z,28.85
2022-09-05T07:38:52.477Z,28.80
2022-09-05T07:41:24.196Z,29.85
2022-09-05T07:43:59.338Z,27.88
2022-09-05T07:46:32.834Z,29.05
2022-09-05T07:49:05.177Z,28.86
2022-09-05T07:56:58.478Z,27.25
2022-09-05T07:57:08.068Z,27.28
2022-09-05T07:57:31.650Z,26.57
2022-09-05T08:00:25.872Z,27.27
2022-09-05T08:03:01.180Z,27.08
2022-09-05T08:05:39.355Z,26.66
2022-09-05T08:08:12.473Z,25.99
2022-09-05T08:11:24.933Z,24.90
2022-09-05T08:13:51.722Z,24.75
2022-09-05T08:16:24.977Z,23.01
2022-09-05T08:19:02.396Z,23.27
2022-09-05T08:21:42.359Z,24.19
2022-09-05T08:24:16.108Z,23.81
2022-09-05T08:26:48.462Z,23.32
2022-09-05T08:29:30.842Z,24.18
2022-09-05T08:32:08.324Z,23.69
2022-09-05T08:34:44.467Z,23.34
2022-09-05T08:37:21.521Z,21.82
2022-09-05T08:40:10.216Z,22.23
2022-09-05T08:45:52.110Z,22.16
2022-09-05T08:46:42.599Z,21.50
2022-09-05T08:49:12.464Z,21.71
2022-09-05T08:51:55.470Z,21.55
2022-09-05T08:54:33.537Z,21.92
2022-09-05T08:57:07.612Z,21.27
2022-09-05T09:00:19.723Z,21.54
2022-09-05T09:02:52.874Z,21.30
2022-09-05T09:06:12.743Z,21.11
2022-09-05T09:08:44.712Z,21.51
2022-09-05T09:11:29.723Z,20.54
2022-09-05T09:14:31.103Z,20.46
2022-09-05T09:17:10.628Z,20.15
2022-09-05T09:19:55.857Z,19.46
2022-09-05T09:22:41.768Z,19.64
2022-09-05T09:25:18.451Z,19.28
2022-09-05T09:28:49.083Z,19.66
2022-09-05T09:31:13.895Z,18.81
2022-09-05T09:33:49.392Z,19.00
2022-09-05T09:36:40.887Z,19.40
2022-09-05T09:39:38.648Z,18.45
2022-09-05T09:42:32.487Z,18.99
2022-09-05T09:45:29.245Z,19.17
2022-09-05T09:48:33.456Z,19.45
2022-09-05T09:51:17.285Z,19.04
2022-09-05T09:54:05.553Z,17.91
2022-09-05T09:57:03.712Z,18.36
2022-09-05T10:00:03.429Z,17.43
2022-09-05T10:06:30.278Z,18.67
2022-09-05T10:10:35.274Z,18.77
2022-09-05T10:10:59.635Z,18.27
2022-09-05T10:12:37.495Z,18.09
2022-09-05T10:15:30.395Z,17.46
2022-09-05T10:18:33.544Z,16.69
2022-09-05T10:21:29.676Z,16.84
2022-09-05T10:24:28.137Z,17.42
2022-09-05T10:27:20.162Z,15.97
2022-09-05T10:30:06.322Z,17.01
2022-09-05T10:35:09.428Z,17.62
2022-09-05T10:35:37.759Z,16.36
2022-09-05T10:38:12.298Z,15.98
2022-09-05T10:41:14.658Z,16.17
2022-09-05T10:43:38.789Z,15.69
2022-09-05T10:46:49.062Z,16.17
2022-09-05T10:49:16.456Z,15.94
2022-09-05T10:51:53.632Z,15.79
2022-09-05T10:54:35.596Z,15.22
2022-09-05T10:57:17.384Z,16.07
2022-09-05T11:02:15.922Z,16.05
2022-09-05T11:03:01.274Z,16.09
2022-09-05T11:05:38.125Z,16.10
2022-09-05T11:08:11.547Z,16.14
2022-09-05T11:10:50.718Z,15.81
2022-09-05T11:13:36.514Z,16.35
2022-09-05T11:16:14.336Z,16.96
2022-09-05T11:19:07.293Z,16.74
2022-09-05T11:22:22.003Z,17.17
2022-09-05T11:24:52.908Z,16.92
2022-09-05T11:27:36.162Z,16.69
2022-09-05T11:30:07.932Z,17.20
2022-09-05T11:39:03.785Z,17.69
2022-09-05T11:39:12.145Z,16.55
2022-09-05T11:39:53.229Z,16.41
2022-09-05T11:42:10.465Z,18.09
2022-09-05T11:44:56.196Z,17.79
2022-09-05T11:48:15.914Z,16.60
2022-09-05T11:51:12.003Z,17.25
2022-09-05T11:53:57.243Z,16.53
2022-09-05T11:57:32.154Z,15.51
2022-09-05T12:00:32.494Z,16.91
2022-09-05T12:03:59.203Z,17.48
2022-09-05T12:07:30.580Z,17.78
2022-09-05T12:10:45.715Z,18.69
2022-09-05T12:13:21.795Z,20.69
2022-09-05T12:16:07.397Z,20.36
2022-09-05T12:18:43.949Z,20.41
2022-09-05T12:21:27.226Z,20.22
2022-09-05T12:25:15.317Z,20.02
2022-09-05T12:29:54.427Z,19.03
2022-09-05T12:33:58.391Z,19.18
2022-09-05T12:36:10.009Z,18.73
2022-09-05T12:40:53.828Z,17.57
2022-09-05T12:41:44.236Z,17.26
2022-09-05T12:42:10.986Z,20.36
2022-09-05T12:44:41.304Z,16.51
2022-09-05T12:47:16.687Z,16.39
2022-09-05T12:50:02.407Z,16.73
2022-09-05T12:52:42.406Z,16.22
2022-09-05T12:55:20.122Z,15.55
2022-09-05T13:02:58.598Z,15.83
2022-09-05T13:03:01.346Z,17.21
2022-09-05T13:04:13.122Z,19.01
2022-09-05T13:06:39.930Z,20.79
2022-09-05T13:09:16.671Z,21.29
2022-09-05T13:14:49.123Z,22.06
2022-09-05T13:15:21.918Z,22.12
2022-09-05T13:18:01.021Z,21.33
2022-09-05T13:20:35.443Z,20.52
2022-09-05T13:23:15.207Z,21.87
2022-09-05T13:25:50.478Z,22.36
2022-09-05T13:28:25.444Z,23.29
2022-09-05T13:35:35.110Z,23.08
2022-09-05T13:37:55.446Z,22.27
2022-09-05T13:38:12.341Z,23.91
2022-09-05T13:39:51.558Z,21.94
2022-09-05T13:42:23.026Z,22.72
2022-09-05T13:44:55.832Z,23.37
2022-09-05T13:47:39.169Z,23.62
2022-09-05T13:50:23.491Z,24.82
2022-09-05T13:52:57.948Z,25.26
2022-09-05T13:55:37.898Z,24.88
2022-09-05T13:58:12.176Z,25.20
2022-09-05T14:00:55.439Z,25.24
2022-09-05T14:03:55.567Z,25.47
2022-09-05T14:06:48.880Z,26.80
2022-09-05T14:09:38.269Z,28.51
2022-09-05T14:12:16.317Z,27.22
2022-09-05T14:17:56.569Z,28.35
2022-09-05T14:20:49.910Z,29.55
2022-09-05T14:23:21.441Z,29.00
2022-09-05T14:25:56.713Z,29.01
2022-09-05T14:28:29.048Z,31.03
2022-09-05T14:33:21.142Z,30.01
2022-09-05T14:37:43.566Z,30.59
2022-09-05T14:37:50.763Z,30.57
2022-09-05T14:40:35.811Z,29.81
2022-09-05T14:43:30.791Z,30.35
2022-09-05T14:46:33.583Z,29.99
2022-09-05T14:49:29.281Z,30.32
2022-09-05T14:51:58.616Z,31.34
2022-09-05T15:02:41.598Z,31.23
2022-09-05T15:02:53.101Z,31.10
2022-09-05T15:03:09.574Z,31.35
2022-09-05T15:05:50.171Z,32.18
2022-09-05T15:09:27.272Z,33.02
2022-09-05T15:12:23.055Z,33.64
2022-09-05T15:14:06.577Z,34.48
2022-09-05T15:16:43.638Z,33.92
2022-09-05T15:19:14.876Z,33.80
2022-09-05T15:21:43.514Z,33.14
2022-09-05T15:24:24.322Z,32.94
2022-09-05T15:26:54.763Z,33.16
2022-09-05T15:29:25.680Z,32.55
2022-09-05T15:32:14.468Z,31.95
2022-09-05T15:34:43.068Z,32.62
2022-09-05T15:37:28.721Z,34.28
2022-09-05T15:40:03.102Z,35.26
2022-09-05T15:42:33.848Z,33.17
2022-09-05T15:45:10.278Z,32.46
2022-09-05T15:47:47.395Z,32.72
2022-09-05T15:50:22.534Z,32.31
2022-09-05T15:52:55.666Z,32.77
2022-09-05T15:55:26.272Z,32.18
2022-09-05T15:58:00.477Z,32.39
2022-09-05T16:00:41.052Z,34.22
2022-09-05T16:04:47.885Z,34.58
2022-09-05T16:10:45.522Z,32.51
2022-09-05T16:10:48.889Z,32.95
2022-09-05T16:12:17.882Z,31.83
2022-09-05T16:14:52.888Z,31.14
2022-09-05T16:23:17.586Z,31.07
2022-09-05T16:23:24.112Z,32.46
2022-09-05T16:23:40.703Z,31.99
2022-09-05T16:26:12.840Z,31.58
2022-09-05T16:28:48.246Z,30.86
2022-09-05T16:31:21.129Z,31.08
2022-09-05T16:33:49.951Z,31.27
2022-09-05T16:36:27.122Z,29.92
2022-09-05T16:39:00.465Z,29.68
2022-09-05T16:41:40.994Z,30.24
2022-09-05T16:44:15.230Z,31.06
2022-09-05T16:46:53.852Z,31.06
2022-09-05T16:49:41.736Z,30.82
2022-09-05T16:52:17.286Z,30.04
2022-09-05T16:54:51.091Z,30.26
2022-09-05T16:57:24.123Z,30.05
2022-09-05T16:59:52.794Z,30.17
2022-09-05T17:02:28.482Z,30.18
2022-09-05T17:05:11.006Z,30.42
2022-09-05T17:08:15.368Z,30.36
2022-09-05T17:10:57.964Z,30.08
2022-09-05T17:13:39.641Z,30.03
2022-09-05T17:16:13.584Z,30.92
2022-09-05T17:18:44.522Z,31.17
2022-09-05T17:21:28.574Z,30.97
2022-09-05T17:29:16.638Z,30.79
2022-09-05T17:29:25.564Z,31.97
2022-09-05T17:33:00.405Z,31.84
2022-09-05T17:35:52.724Z,31.83
2022-09-05T17:38:49.735Z,32.02
2022-09-05T17:41:35.893Z,32.23
2022-09-05T17:44:18.005Z,33.03
2022-09-05T17:47:01.171Z,33.38
2022-09-05T17:49:42.900Z,35.18
2022-09-05T17:52:21.947Z,34.79
2022-09-05T17:54:53.734Z,33.98
2022-09-05T17:57:45.125Z,34.00
2022-09-05T18:01:05.380Z,34.30
2022-09-05T18:04:33.424Z,36.37
2022-09-05T18:07:51.809Z,36.05
2022-09-05T18:10:27.681Z,38.04
2022-09-05T18:13:32.267Z,39.61
2022-09-05T18:16:12.063Z,41.00
2022-09-05T18:19:33.035Z,41.15
2022-09-05T18:21:52.939Z,43.55
2022-09-05T18:24:33.361Z,44.11
2022-09-05T18:30:07.738Z,46.77
2022-09-05T18:32:45.504Z,47.39
2022-09-05T18:35:26.420Z,48.58
2022-09-05T18:38:51.909Z,49.61
2022-09-05T18:41:20.825Z,50.49
2022-09-05T18:44:13.889Z,51.26
2022-09-05T18:46:53.306Z,51.90
2022-09-05T18:50:21.752Z,51.99
2022-09-05T18:52:23.731Z,53.00
2022-09-05T18:56:10.284Z,53.84
2022-09-05T18:57:50.407Z,54.28
2022-09-05T19:00:35.120Z,54.68
2022-09-05T19:03:24.903Z,54.98
2022-09-05T19:06:34.367Z,55.70
2022-09-05T19:08:49.854Z,55.80
2022-09-05T19:11:28.923Z,56.34
2022-09-05T19:14:26.297Z,56.28
2022-09-05T19:17:03.339Z,56.41
2022-09-05T19:20:31.704Z,57.23
2022-09-05T19:23:11.090Z,57.72
2022-09-05T19:25:43.451Z,58.27
2022-09-05T19:36:44.206Z,58.31
2022-09-05T19:37:07.575Z,59.28
2022-09-05T19:37:14.597Z,58.49
2022-09-05T19:37:29.468Z,59.21
2022-09-05T19:41:27.099Z,60.57
2022-09-05T19:47:30.457Z,60.04
2022-09-05T19:47:57.715Z,60.63
2022-09-05T19:48:21.231Z,61.73
2022-09-05T19:50:50.640Z,61.53
2022-09-05T19:53:21.290Z,62.18
2022-09-05T19:55:50.609Z,62.99
2022-09-05T19:58:22.154Z,63.26
2022-09-05T20:01:04.882Z,63.75
2022-09-05T20:03:39.115Z,64.40
2022-09-05T20:06:30.323Z,64.23
2022-09-05T20:09:15.754Z,65.24
2022-09-05T20:11:49.414Z,65.84
2022-09-05T20:14:21.715Z,66.52
2022-09-05T20:16:51.901Z,67.01
2022-09-05T20:19:28.767Z,66.99
2022-09-05T20:22:45.196Z,67.25
2022-09-05T20:24:55.525Z,68.06
2022-09-05T20:27:28.183Z,68.00
2022-09-05T20:29:59.692Z,67.90
2022-09-05T20:32:39.083Z,68.67
2022-09-05T20:40:10.488Z,68.78
2022-09-05T20:43:23.027Z,69.14
2022-09-05T20:43:24.416Z,69.67
2022-09-05T20:44:01.335Z,69.70
2022-09-05T20:49:04.473Z,69.80
2022-09-05T20:54:13.816Z,70.35
2022-09-05T20:54:22.586Z,69.75
2022-09-05T20:55:39.977Z,70.85
2022-09-05T20:58:13.608Z,70.31
2022-09-05T21:01:21.747Z,70.53
2022-09-05T21:03:38.525Z,70.55
2022-09-05T21:06:12.738Z,70.00
2022-09-05T21:08:41.417Z,69.68
2022-09-05T21:11:10.191Z,70.43
2022-09-05T21:13:53.034Z,69.24
2022-09-05T21:16:27.979Z,69.55
2022-09-05T21:18:56.703Z,69.40
2022-09-05T21:21:28.858Z,70.46
2022-09-05T21:24:15.858Z,70.55
2022-09-05T21:26:50.871Z,70.77
2022-09-05T21:29:32.593Z,71.57
2022-09-05T21:32:03.943Z,70.56
2022-09-05T21:34:45.793Z,70.66
2022-09-05T21:37:16.221Z,70.36
2022-09-05T21:39:59.753Z,69.83
2022-09-05T21:43:36.092Z,70.50
2022-09-05T21:47:47.016Z,71.22
2022-09-05T21:48:14.789Z,70.38
2022-09-05T21:50:46.960Z,70.47
2022-09-05T21:57:31.576Z,70.71
2022-09-05T21:59:18.876Z,72.12
2022-09-05T21:59:26.795Z,71.72
2022-09-05T22:01:53.858Z,71.56
2022-09-05T22:04:22.740Z,72.91
2022-09-05T22:06:53.188Z,72.94
2022-09-05T22:09:23.180Z,73.11
2022-09-05T22:11:52.437Z,73.62
2022-09-05T22:14:22.588Z,73.10
2022-09-05T22:16:55.328Z,74.15
2022-09-05T22:19:36.903Z,74.38
2022-09-05T22:22:17.167Z,74.43
2022-09-05T22:24:51.050Z,74.66
2022-09-05T22:27:22.511Z,74.28
2022-09-05T22:29:52.348Z,74.36
2022-09-05T22:32:33.822Z,74.74
2022-09-05T22:35:26.863Z,75.10
2022-09-05T22:38:01.105Z,75.09
2022-09-05T22:40:31.646Z,76.35
2022-09-05T22:43:02.085Z,75.92
2022-09-05T22:45:32.304Z,75.88
2022-09-05T22:48:08.356Z,75.79
2022-09-05T22:50:37.353Z,75.26
2022-09-05T22:53:08.361Z,76.12
2022-09-05T22:55:38.086Z,74.76
2022-09-05T22:58:08.061Z,73.46
2022-09-05T23:00:37.168Z,75.76
2022-09-05T23:03:08.386Z,75.19
2022-09-05T23:05:36.858Z,74.28
2022-09-05T23:08:06.923Z,68.76
2022-09-05T23:10:36.500Z,72.60
2022-09-05T23:13:06.276Z,68.39
2022-09-05T23:15:35.405Z,65.06
2022-09-05T23:18:04.946Z,66.78
2022-09-05T23:20:35.462Z,64.13
2022-09-05T23:23:06.050Z,63.91
2022-09-05T23:25:35.006Z,69.45
2022-09-05T23:28:06.512Z,73.41
2022-09-05T23:30:35.350Z,80.82
2022-09-05T23:33:06.661Z,82.89
2022-09-05T23:35:36.783Z,82.80
2022-09-05T23:38:09.544Z,90.87
2022-09-05T23:40:38.760Z,91.57
2022-09-05T23:43:07.842Z,95.94
2022-09-05T23:45:36.297Z,99.58
2022-09-05T23:48:05.170Z,100.00
2022-09-05T23:50:33.612Z,100.00
2022-09-05T23:53:05.316Z,100.00
2022-09-05T23:55:33.919Z,100.00
2022-09-05T23:58:02.325Z,100.00
